Swinomish — WC5223 — position and weather

sailwx.info

Track history (hours):
 
Tides and Currents Weather Stations Pressure Air Temp Water Temp Dewpoint Dewpoint Depression Visibility Wind Speed Wind Dir Waves Ship Positions

Swinomish

Owner: DUNLAP TOWING CO, LA CONNER, WA. More information available from US FCC via Universal Licensing System and Coast Guard Vessel Documentation Center.

Last reported at 2016-Jul-24 17:34 UTC. Time now 2016-Jul-24 18:34 UTC.
Position N 47°59' W 122°13'.

Length 15 m; draft 3.5 m.

Type: Tug. MMSI: 366972050.

Date/timePositionNaut miles runAvg speedWind from/ knotsBaromVisibWave heightAir tempDewpointWater temp
2016-Jul-24 17:34N 47°59' W 122°13'0 0.0
2016-Jul-24 16:33N 47°59' W 122°13'0 0.0
2016-Jul-24 15:34N 47°59' W 122°13'0 0.0
2016-Jul-24 14:33N 47°59' W 122°13'0 0.0
2016-Jul-24 13:17N 47°59' W 122°13'0 0.0
2016-Jul-24 12:32N 47°59' W 122°13'0 0.0
2016-Jul-24 11:31N 47°59' W 122°13'0 0.0
2016-Jul-24 10:27N 47°59' W 122°13'0 0.0
2016-Jul-24 09:32N 47°59' W 122°13'0 0.0
2016-Jul-24 08:33N 47°59' W 122°13'0 0.0
2016-Jul-24 07:32N 47°59' W 122°13'0 0.0
2016-Jul-24 06:33N 47°59' W 122°13'0 0.0
2016-Jul-24 05:34N 47°59' W 122°13'0 0.0
2016-Jul-24 04:33N 47°59' W 122°13'0 0.0
2016-Jul-24 03:34N 47°59' W 122°13'0 0.0
2016-Jul-24 02:34N 47°59' W 122°13'0 0.0
2016-Jul-24 01:34N 47°59' W 122°13'0 0.0
2016-Jul-24 00:34N 47°59' W 122°13'0 0.0
2016-Jul-23 23:33N 47°59' W 122°13'0 0.0
2016-Jul-23 22:33N 47°59' W 122°13'0 0.0
2016-Jul-23 21:33N 47°59' W 122°13'0 0.0
2016-Jul-23 20:33N 47°59' W 122°13'0 0.0
2016-Jul-23 19:33N 47°59' W 122°13'0 0.0
2016-Jul-23 18:31N 47°59' W 122°13'0 0.0
2016-Jul-23 17:34N 47°59' W 122°13'0 0.0
2016-Jul-23 16:34N 47°59' W 122°13'0 0.0
2016-Jul-23 15:34N 47°59' W 122°13'0 0.0
2016-Jul-23 14:34N 47°59' W 122°13'0 0.0
2016-Jul-23 13:34N 47°59' W 122°13'0 0.0
2016-Jul-23 12:33N 47°59' W 122°13'0 0.0
2016-Jul-23 11:34N 47°59' W 122°13'0 0.0
2016-Jul-23 10:34N 47°59' W 122°13'0 0.0
2016-Jul-23 09:34N 47°59' W 122°13'0 0.0
2016-Jul-23 08:34N 47°59' W 122°13'0 0.0
2016-Jul-23 07:34N 47°59' W 122°13'0 0.0
2016-Jul-23 06:34N 47°59' W 122°13'0 0.0
2016-Jul-23 04:34N 47°59' W 122°13'0 0.0
2016-Jul-23 03:33N 47°59' W 122°13'0 0.0
2016-Jul-23 02:34N 47°59' W 122°13'0 0.0
2016-Jul-23 01:34N 47°59' W 122°13'0 0.0
2016-Jul-23 00:34N 47°59' W 122°13'0 0.0
2016-Jul-22 23:34N 47°59' W 122°13'0 0.0
2016-Jul-22 22:34N 47°59' W 122°13'0 0.0
2016-Jul-22 21:34N 47°59' W 122°13'0 0.0
2016-Jul-22 20:33N 47°59' W 122°13'0 0.0
2016-Jul-22 19:34N 47°59' W 122°13'0 0.0
2016-Jul-22 18:34N 47°59' W 122°13'0 0.0
2016-Jul-22 17:34N 47°59' W 122°13'0 0.0
2016-Jul-22 16:33N 47°59' W 122°13'0 0.0
2016-Jul-22 15:32N 47°59' W 122°13'  
2016-Jul-19 15:33N 47°59' W 122°13'0 0.2
2016-Jul-19 14:33N 47°59' W 122°13'1 1.1
2016-Jul-19 13:32N 47°58' W 122°15'1 1.1
2016-Jul-19 12:33N 47°59' W 122°16'1 1.3
2016-Jul-19 11:32N 48°00' W 122°17'1 1.3
2016-Jul-19 10:29N 48°01' W 122°18'1 1.2
2016-Jul-19 09:30N 48°02' W 122°20'1 1.2
2016-Jul-19 08:29N 48°03' W 122°21'1 1.2
2016-Jul-19 07:33N 48°03' W 122°23'9 1.7
2016-Jul-19 02:29N 48°09' W 122°32'2 1.8
2016-Jul-19 01:32N 48°11' W 122°33'2 1.6
2016-Jul-19 00:28N 48°12' W 122°33'3 1.4
2016-Jul-18 22:33N 48°15' W 122°33'1 1.4
2016-Jul-18 21:33N 48°16' W 122°31'2 1.6
2016-Jul-18 20:24N 48°18' W 122°30'2 1.8
2016-Jul-18 19:24N 48°19' W 122°31'7 2.4
2016-Jul-18 16:29N 48°24' W 122°38'1 0.9
2016-Jul-18 15:31N 48°25' W 122°40'0 0.4
2016-Jul-18 14:33N 48°25' W 122°40'0 0.4
2016-Jul-18 13:33N 48°25' W 122°41'1 1.1
2016-Jul-18 12:33N 48°26' W 122°42'2 2.5
2016-Jul-18 11:33N 48°28' W 122°43'2 1.9
2016-Jul-18 10:33N 48°30' W 122°44'1 1.4
2016-Jul-18 09:33N 48°31' W 122°46'1 0.9
2016-Jul-18 08:33N 48°32' W 122°47'2 1.7
2016-Jul-18 07:33N 48°32' W 122°49'1 1.2
2016-Jul-18 06:33N 48°31' W 122°51'0 0.1
2016-Jul-18 05:33N 48°31' W 122°51'0 0.0
2016-Jul-18 04:33N 48°31' W 122°51'0 0.0
2016-Jul-18 03:33N 48°31' W 122°51'0 0.0
2016-Jul-18 02:33N 48°31' W 122°51'0 0.0
2016-Jul-18 01:33N 48°31' W 122°51'0 0.0
2016-Jul-18 00:33N 48°31' W 122°51'0 0.0
2016-Jul-17 23:33N 48°31' W 122°51'0 0.0
2016-Jul-17 22:33N 48°31' W 122°51'0 0.0
2016-Jul-17 21:33N 48°31' W 122°51'0 0.0
2016-Jul-17 20:33N 48°31' W 122°51'0 0.0
2016-Jul-17 19:33N 48°31' W 122°51'0 0.0
2016-Jul-17 18:33N 48°31' W 122°51'0 0.0
2016-Jul-17 17:33N 48°31' W 122°51'0 0.0
2016-Jul-17 16:33N 48°31' W 122°51'0 0.0
2016-Jul-17 15:33N 48°31' W 122°51'1 0.5
2016-Jul-17 14:33N 48°32' W 122°50'2 1.9
2016-Jul-17 13:33N 48°34' W 122°51'1 1.3
2016-Jul-17 12:33N 48°34' W 122°52'2 1.8
2016-Jul-17 11:33N 48°35' W 122°55'2 2.1
2016-Jul-17 10:33N 48°36' W 122°58'2 1.5
2016-Jul-17 09:33N 48°35' W 123°00'1 0.9
2016-Jul-17 08:33N 48°36' W 123°00'0 0.0
2016-Jul-17 07:33N 48°36' W 123°00'0 0.0
2016-Jul-17 06:33N 48°36' W 123°00'0 0.2
2016-Jul-17 04:33N 48°37' W 123°01'1 1.1
2016-Jul-17 03:33N 48°37' W 123°02'2 2.0
2016-Jul-17 02:33N 48°39' W 123°01'2 1.8
2016-Jul-17 01:33N 48°41' W 122°60'1 1.1
2016-Jul-17 00:33N 48°42' W 122°59'1 1.0
2016-Jul-16 23:33N 48°43' W 122°59'1 1.3
2016-Jul-16 22:33N 48°44' W 122°59'1 1.1
2016-Jul-16 21:33N 48°45' W 122°60'4 3.4
2016-Jul-16 20:20N 48°44' W 123°06'3 3.1
2016-Jul-16 19:30N 48°45' W 123°09'2 1.6
2016-Jul-16 18:31N 48°45' W 123°11'1 0.9
2016-Jul-16 17:33N 48°46' W 123°12'1 0.7
2016-Jul-16 16:33N 48°47' W 123°13'0 0.5
2016-Jul-16 15:33N 48°47' W 123°13'1 0.7
2016-Jul-16 14:33N 48°47' W 123°14'0 0.3
2016-Jul-16 13:33N 48°48' W 123°15'0 0.0
2016-Jul-16 12:33N 48°48' W 123°15'0 0.0
2016-Jul-16 11:33N 48°48' W 123°15'0 0.0
2016-Jul-16 10:33N 48°48' W 123°15'0 0.0
2016-Jul-16 09:33N 48°48' W 123°14'0 0.0
2016-Jul-16 08:33N 48°48' W 123°14'0 0.0
2016-Jul-16 07:33N 48°48' W 123°15'0 0.1
2016-Jul-16 06:33N 48°47' W 123°15'0 0.0
2016-Jul-16 04:33N 48°47' W 123°15'0 0.0
2016-Jul-16 03:33N 48°47' W 123°15'0 0.0
2016-Jul-16 02:33N 48°47' W 123°15'0 0.0
2016-Jul-16 01:33N 48°47' W 123°15'0 0.1
2016-Jul-16 00:33N 48°48' W 123°15'0 0.0
2016-Jul-15 23:33N 48°48' W 123°15'0 0.0
2016-Jul-15 22:33N 48°48' W 123°15'0 0.0
2016-Jul-15 21:33N 48°48' W 123°15'0 0.0
2016-Jul-15 20:33N 48°47' W 123°15'0 0.1
2016-Jul-15 19:33N 48°47' W 123°14'1 0.6
2016-Jul-15 18:33N 48°48' W 123°15'3 2.5
2016-Jul-15 17:31N 48°49' W 123°18'2 2.0
2016-Jul-15 16:33N 48°50' W 123°21'2 1.6
2016-Jul-15 15:33N 48°51' W 123°23'1 1.0
2016-Jul-15 14:31N 48°52' W 123°24'1 1.1
2016-Jul-15 13:33N 48°52' W 123°25'0 0.4
2016-Jul-15 12:28N 48°52' W 123°25'0 0.1
2016-Jul-15 11:32N 48°52' W 123°25'0 0.3
2016-Jul-15 10:33N 48°52' W 123°25'1 0.6
2016-Jul-15 09:27N 48°53' W 123°26'1 0.9
2016-Jul-15 08:10N 48°54' W 123°27'1 0.9
2016-Jul-15 07:27N 48°54' W 123°28'1 0.9
2016-Jul-15 06:31N 48°54' W 123°29'1 1.3
2016-Jul-15 05:33N 48°55' W 123°30'2 2.2
2016-Jul-15 04:28N 48°57' W 123°33'2 1.9
2016-Jul-15 03:33N 48°58' W 123°34'2 2.2
2016-Jul-15 02:33N 48°60' W 123°36'2 1.3
2016-Jul-15 01:10N 49°01' W 123°38'1 1.5
2016-Jul-15 00:21N 49°02' W 123°39'2 1.7
2016-Jul-14 23:27N 49°04' W 123°40'2 1.7
2016-Jul-14 22:32N 49°05' W 123°42'2 1.5
2016-Jul-14 21:31N 49°06' W 123°42'0 0.2
2016-Jul-14 19:18N 49°07' W 123°43'0 0.3
2016-Jul-14 18:33N 49°07' W 123°43'  
Track history (hours):
 
Tides and Currents Weather Stations Pressure Air Temp Water Temp Dewpoint Dewpoint Depression Visibility Wind Speed Wind Dir Waves Ship Positions

Swinomish

Owner: DUNLAP TOWING CO, LA CONNER, WA. More information available from US FCC via Universal Licensing System and Coast Guard Vessel Documentation Center.

Last reported at 2016-Jul-24 17:34 UTC. Time now 2016-Jul-24 18:34 UTC.
Position N 47°59' W 122°13'.

Length 15 m; draft 3.5 m.

Type: Tug. MMSI: 366972050.

Date/timePositionNaut miles runAvg speedWind from/ knotsBaromVisibWave heightAir tempDewpointWater temp
2016-Jul-24 17:34N 47°59' W 122°13'0 0.0
2016-Jul-24 16:33N 47°59' W 122°13'0 0.0
2016-Jul-24 15:34N 47°59' W 122°13'0 0.0
2016-Jul-24 14:33N 47°59' W 122°13'0 0.0
2016-Jul-24 13:17N 47°59' W 122°13'0 0.0
2016-Jul-24 12:32N 47°59' W 122°13'0 0.0
2016-Jul-24 11:31N 47°59' W 122°13'0 0.0
2016-Jul-24 10:27N 47°59' W 122°13'0 0.0
2016-Jul-24 09:32N 47°59' W 122°13'0 0.0
2016-Jul-24 08:33N 47°59' W 122°13'0 0.0
2016-Jul-24 07:32N 47°59' W 122°13'0 0.0
2016-Jul-24 06:33N 47°59' W 122°13'0 0.0
2016-Jul-24 05:34N 47°59' W 122°13'0 0.0
2016-Jul-24 04:33N 47°59' W 122°13'0 0.0
2016-Jul-24 03:34N 47°59' W 122°13'0 0.0
2016-Jul-24 02:34N 47°59' W 122°13'0 0.0
2016-Jul-24 01:34N 47°59' W 122°13'0 0.0
2016-Jul-24 00:34N 47°59' W 122°13'0 0.0
2016-Jul-23 23:33N 47°59' W 122°13'0 0.0
2016-Jul-23 22:33N 47°59' W 122°13'0 0.0
2016-Jul-23 21:33N 47°59' W 122°13'0 0.0
2016-Jul-23 20:33N 47°59' W 122°13'0 0.0
2016-Jul-23 19:33N 47°59' W 122°13'0 0.0
2016-Jul-23 18:31N 47°59' W 122°13'0 0.0
2016-Jul-23 17:34N 47°59' W 122°13'0 0.0
2016-Jul-23 16:34N 47°59' W 122°13'0 0.0
2016-Jul-23 15:34N 47°59' W 122°13'0 0.0
2016-Jul-23 14:34N 47°59' W 122°13'0 0.0
2016-Jul-23 13:34N 47°59' W 122°13'0 0.0
2016-Jul-23 12:33N 47°59' W 122°13'0 0.0
2016-Jul-23 11:34N 47°59' W 122°13'0 0.0
2016-Jul-23 10:34N 47°59' W 122°13'0 0.0
2016-Jul-23 09:34N 47°59' W 122°13'0 0.0
2016-Jul-23 08:34N 47°59' W 122°13'0 0.0
2016-Jul-23 07:34N 47°59' W 122°13'0 0.0
2016-Jul-23 06:34N 47°59' W 122°13'0 0.0
2016-Jul-23 04:34N 47°59' W 122°13'0 0.0
2016-Jul-23 03:33N 47°59' W 122°13'0 0.0
2016-Jul-23 02:34N 47°59' W 122°13'0 0.0
2016-Jul-23 01:34N 47°59' W 122°13'0 0.0
2016-Jul-23 00:34N 47°59' W 122°13'0 0.0
2016-Jul-22 23:34N 47°59' W 122°13'0 0.0
2016-Jul-22 22:34N 47°59' W 122°13'0 0.0
2016-Jul-22 21:34N 47°59' W 122°13'0 0.0
2016-Jul-22 20:33N 47°59' W 122°13'0 0.0
2016-Jul-22 19:34N 47°59' W 122°13'0 0.0
2016-Jul-22 18:34N 47°59' W 122°13'0 0.0
2016-Jul-22 17:34N 47°59' W 122°13'0 0.0
2016-Jul-22 16:33N 47°59' W 122°13'0 0.0
2016-Jul-22 15:32N 47°59' W 122°13'  
2016-Jul-19 15:33N 47°59' W 122°13'0 0.2
2016-Jul-19 14:33N 47°59' W 122°13'1 1.1
2016-Jul-19 13:32N 47°58' W 122°15'1 1.1
2016-Jul-19 12:33N 47°59' W 122°16'1 1.3
2016-Jul-19 11:32N 48°00' W 122°17'1 1.3
2016-Jul-19 10:29N 48°01' W 122°18'1 1.2
2016-Jul-19 09:30N 48°02' W 122°20'1 1.2
2016-Jul-19 08:29N 48°03' W 122°21'1 1.2
2016-Jul-19 07:33N 48°03' W 122°23'9 1.7
2016-Jul-19 02:29N 48°09' W 122°32'2 1.8
2016-Jul-19 01:32N 48°11' W 122°33'2 1.6
2016-Jul-19 00:28N 48°12' W 122°33'3 1.4
2016-Jul-18 22:33N 48°15' W 122°33'1 1.4
2016-Jul-18 21:33N 48°16' W 122°31'2 1.6
2016-Jul-18 20:24N 48°18' W 122°30'2 1.8
2016-Jul-18 19:24N 48°19' W 122°31'7 2.4
2016-Jul-18 16:29N 48°24' W 122°38'1 0.9
2016-Jul-18 15:31N 48°25' W 122°40'0 0.4
2016-Jul-18 14:33N 48°25' W 122°40'0 0.4
2016-Jul-18 13:33N 48°25' W 122°41'1 1.1
2016-Jul-18 12:33N 48°26' W 122°42'2 2.5
2016-Jul-18 11:33N 48°28' W 122°43'2 1.9
2016-Jul-18 10:33N 48°30' W 122°44'1 1.4
2016-Jul-18 09:33N 48°31' W 122°46'1 0.9
2016-Jul-18 08:33N 48°32' W 122°47'2 1.7
2016-Jul-18 07:33N 48°32' W 122°49'1 1.2
2016-Jul-18 06:33N 48°31' W 122°51'0 0.1
2016-Jul-18 05:33N 48°31' W 122°51'0 0.0
2016-Jul-18 04:33N 48°31' W 122°51'0 0.0
2016-Jul-18 03:33N 48°31' W 122°51'0 0.0
2016-Jul-18 02:33N 48°31' W 122°51'0 0.0
2016-Jul-18 01:33N 48°31' W 122°51'0 0.0
2016-Jul-18 00:33N 48°31' W 122°51'0 0.0
2016-Jul-17 23:33N 48°31' W 122°51'0 0.0
2016-Jul-17 22:33N 48°31' W 122°51'0 0.0
2016-Jul-17 21:33N 48°31' W 122°51'0 0.0
2016-Jul-17 20:33N 48°31' W 122°51'0 0.0
2016-Jul-17 19:33N 48°31' W 122°51'0 0.0
2016-Jul-17 18:33N 48°31' W 122°51'0 0.0
2016-Jul-17 17:33N 48°31' W 122°51'0 0.0
2016-Jul-17 16:33N 48°31' W 122°51'0 0.0
2016-Jul-17 15:33N 48°31' W 122°51'1 0.5
2016-Jul-17 14:33N 48°32' W 122°50'2 1.9
2016-Jul-17 13:33N 48°34' W 122°51'1 1.3
2016-Jul-17 12:33N 48°34' W 122°52'2 1.8
2016-Jul-17 11:33N 48°35' W 122°55'2 2.1
2016-Jul-17 10:33N 48°36' W 122°58'2 1.5
2016-Jul-17 09:33N 48°35' W 123°00'1 0.9
2016-Jul-17 08:33N 48°36' W 123°00'0 0.0
2016-Jul-17 07:33N 48°36' W 123°00'0 0.0
2016-Jul-17 06:33N 48°36' W 123°00'0 0.2
2016-Jul-17 04:33N 48°37' W 123°01'1 1.1
2016-Jul-17 03:33N 48°37' W 123°02'2 2.0
2016-Jul-17 02:33N 48°39' W 123°01'2 1.8
2016-Jul-17 01:33N 48°41' W 122°60'1 1.1
2016-Jul-17 00:33N 48°42' W 122°59'1 1.0
2016-Jul-16 23:33N 48°43' W 122°59'1 1.3
2016-Jul-16 22:33N 48°44' W 122°59'1 1.1
2016-Jul-16 21:33N 48°45' W 122°60'4 3.4
2016-Jul-16 20:20N 48°44' W 123°06'3 3.1
2016-Jul-16 19:30N 48°45' W 123°09'2 1.6
2016-Jul-16 18:31N 48°45' W 123°11'1 0.9
2016-Jul-16 17:33N 48°46' W 123°12'1 0.7
2016-Jul-16 16:33N 48°47' W 123°13'0 0.5
2016-Jul-16 15:33N 48°47' W 123°13'1 0.7
2016-Jul-16 14:33N 48°47' W 123°14'0 0.3
2016-Jul-16 13:33N 48°48' W 123°15'0 0.0
2016-Jul-16 12:33N 48°48' W 123°15'0 0.0
2016-Jul-16 11:33N 48°48' W 123°15'0 0.0
2016-Jul-16 10:33N 48°48' W 123°15'0 0.0
2016-Jul-16 09:33N 48°48' W 123°14'0 0.0
2016-Jul-16 08:33N 48°48' W 123°14'0 0.0
2016-Jul-16 07:33N 48°48' W 123°15'0 0.1
2016-Jul-16 06:33N 48°47' W 123°15'0 0.0
2016-Jul-16 04:33N 48°47' W 123°15'0 0.0
2016-Jul-16 03:33N 48°47' W 123°15'0 0.0
2016-Jul-16 02:33N 48°47' W 123°15'0 0.0
2016-Jul-16 01:33N 48°47' W 123°15'0 0.1
2016-Jul-16 00:33N 48°48' W 123°15'0 0.0
2016-Jul-15 23:33N 48°48' W 123°15'0 0.0
2016-Jul-15 22:33N 48°48' W 123°15'0 0.0
2016-Jul-15 21:33N 48°48' W 123°15'0 0.0
2016-Jul-15 20:33N 48°47' W 123°15'0 0.1
2016-Jul-15 19:33N 48°47' W 123°14'1 0.6
2016-Jul-15 18:33N 48°48' W 123°15'3 2.5
2016-Jul-15 17:31N 48°49' W 123°18'2 2.0
2016-Jul-15 16:33N 48°50' W 123°21'2 1.6
2016-Jul-15 15:33N 48°51' W 123°23'1 1.0
2016-Jul-15 14:31N 48°52' W 123°24'1 1.1
2016-Jul-15 13:33N 48°52' W 123°25'0 0.4
2016-Jul-15 12:28N 48°52' W 123°25'0 0.1
2016-Jul-15 11:32N 48°52' W 123°25'0 0.3
2016-Jul-15 10:33N 48°52' W 123°25'1 0.6
2016-Jul-15 09:27N 48°53' W 123°26'1 0.9
2016-Jul-15 08:10N 48°54' W 123°27'1 0.9
2016-Jul-15 07:27N 48°54' W 123°28'1 0.9
2016-Jul-15 06:31N 48°54' W 123°29'1 1.3
2016-Jul-15 05:33N 48°55' W 123°30'2 2.2
2016-Jul-15 04:28N 48°57' W 123°33'2 1.9
2016-Jul-15 03:33N 48°58' W 123°34'2 2.2
2016-Jul-15 02:33N 48°60' W 123°36'2 1.3
2016-Jul-15 01:10N 49°01' W 123°38'1 1.5
2016-Jul-15 00:21N 49°02' W 123°39'2 1.7
2016-Jul-14 23:27N 49°04' W 123°40'2 1.7
2016-Jul-14 22:32N 49°05' W 123°42'2 1.5
2016-Jul-14 21:31N 49°06' W 123°42'0 0.2
2016-Jul-14 19:18N 49°07' W 123°43'0 0.3
2016-Jul-14 18:33N 49°07' W 123°43'  

Dump ship's entire track history